TAF KBJC
KBJC 270538Z 2706/2806 29010KT P6SM SCT120 BKN220 TEMPO 2706/2708 28015G25KT FM270900 VRB05KT P6SM SCT220 FM271600 07007KT P6SM SCT220 FM280100 11008KT P6SM FEW120 SCT220 FM280300 23006KT P6SM FEW120 SCT200=
METAR KBJC
WC KBJC
WS KBJC
WV KBJC